Time;durP1;ratioP1;P1;durP2;ratioP2;P2;SDS_P1;SDS_P2;PMS_P1;PMS_P2;Temp;Humidity;BMP_temperature;BMP_pressure;BME280_temperature;BME280_humidity;BME280_pressure;Samples;Min_cycle;Max_cycle;Signal;HPM_P1;HPM_P2
2021/08/31 08:10:14;;;;;;;40.95;21.42;;;15.50;99.90;;;;;;5090870;27;20565;-75
2021/08/31 08:12:39;;;;;;;48.65;24.20;;;15.60;99.90;;;;;;5090853;28;20709;-75
2021/08/31 08:15:06;;;;;;;45.15;22.70;;;15.60;99.90;;;;;;5090837;28;20201;-75
2021/08/31 08:17:31;;;;;;;41.65;22.00;;;15.60;99.90;;;;;;5090791;28;20167;-75
2021/08/31 08:19:57;;;;;;;55.00;27.05;;;15.40;99.90;;;;;;5090715;28;20174;-75
2021/08/31 08:22:23;;;;;;;60.13;26.63;;;15.40;99.90;;;;;;5090650;28;20167;-75
2021/08/31 08:24:48;;;;;;;61.28;27.08;;;15.30;99.90;;;;;;5090647;28;20172;-75
2021/08/31 08:27:14;;;;;;;65.22;28.73;;;15.10;99.90;;;;;;5090581;28;20206;-75
2021/08/31 08:29:40;;;;;;;64.90;27.55;;;15.00;99.90;;;;;;5090375;28;20191;-75
2021/08/31 08:32:11;;;;;;;74.40;30.92;;;15.00;99.90;;;;;;5090422;28;20274;-75
2021/08/31 08:34:38;;;;;;;74.95;30.88;;;15.00;99.90;;;;;;5090490;28;20159;-75
2021/08/31 08:37:04;;;;;;;77.13;33.90;;;15.00;99.90;;;;;;5090440;28;20533;-75
2021/08/31 08:39:31;;;;;;;62.75;28.13;;;14.90;99.90;;;;;;5090330;28;20168;-75
2021/08/31 08:41:57;;;;;;;73.18;32.08;;;14.80;99.90;;;;;;5090309;28;20578;-76
2021/08/31 08:44:27;;;;;;;68.82;31.00;;;14.80;99.90;;;;;;5090278;28;20172;-75
2021/08/31 08:46:53;;;;;;;76.10;30.40;;;14.80;99.90;;;;;;5090237;28;20183;-75
2021/08/31 08:49:18;;;;;;;74.95;32.10;;;14.80;99.90;;;;;;5090085;28;20191;-75
2021/08/31 08:51:44;;;;;;;67.65;29.00;;;14.70;99.90;;;;;;5090110;28;20672;-75
2021/08/31 08:54:10;;;;;;;70.82;27.83;;;14.70;99.90;;;;;;5090130;28;20168;-75
2021/08/31 08:56:36;;;;;;;68.68;30.40;;;14.70;99.90;;;;;;5089966;28;20637;-76
2021/08/31 08:59:02;;;;;;;70.00;28.00;;;14.70;99.90;;;;;;5088756;28;20532;-75
2021/08/31 09:01:48;;;;;;;54.45;26.02;;;14.70;99.90;;;;;;5089943;28;20232;-76
2021/08/31 09:04:16;;;;;;;55.50;26.92;;;14.70;99.90;;;;;;5089909;28;20601;-75
2021/08/31 09:06:43;;;;;;;59.33;25.42;;;14.70;99.90;;;;;;5089890;28;20643;-76
2021/08/31 09:09:09;;;;;;;68.30;28.33;;;14.70;99.90;;;;;;5089484;28;20226;-75
2021/08/31 09:11:39;;;;;;;56.35;26.80;;;14.70;99.90;;;;;;5088488;28;20579;-75
2021/08/31 09:14:27;;;;;;;55.83;25.77;;;14.60;99.90;;;;;;5089693;28;20687;-75
2021/08/31 09:16:58;;;;;;;60.03;27.10;;;14.60;99.90;;;;;;5089641;28;20172;-75
2021/08/31 09:19:35;;;;;;;59.28;27.77;;;14.60;99.90;;;;;;5088866;28;20187;-76
2021/08/31 09:22:33;;;;;;;53.53;25.08;;;14.70;99.90;;;;;;5075890;28;20194;-75
2021/08/31 09:25:08;;;;;;;56.58;26.25;;;14.80;99.90;;;;;;5074820;28;20608;-75
2021/08/31 09:27:36;;;;;;;47.42;24.58;;;14.90;99.90;;;;;;5076035;28;20241;-75
2021/08/31 09:30:22;;;;;;;49.72;24.23;;;15.00;99.90;;;;;;5075764;28;20645;-75
2021/08/31 09:33:03;;;;;;;47.08;24.00;;;15.20;99.90;;;;;;5075694;28;20192;-75
2021/08/31 09:35:33;;;;;;;46.10;24.33;;;15.40;99.90;;;;;;5075819;28;20161;-75
2021/08/31 09:38:01;;;;;;;44.47;24.40;;;15.50;99.90;;;;;;5075790;28;20161;-76
2021/08/31 09:40:28;;;;;;;50.28;24.83;;;15.60;99.90;;;;;;5075714;28;20630;-75
2021/08/31 09:43:05;;;;;;;44.83;22.90;;;15.70;99.90;;;;;;5075689;28;20183;-75
2021/08/31 09:45:37;;;;;;;40.95;22.50;;;15.70;99.90;;;;;;5075648;28;20160;-75
2021/08/31 09:48:05;;;;;;;40.17;21.42;;;15.70;99.90;;;;;;5074333;28;20200;-75
2021/08/31 09:50:40;;;;;;;37.17;21.10;;;15.70;99.90;;;;;;5075589;28;20604;-75
2021/08/31 09:53:23;;;;;;;32.83;18.95;;;15.80;99.90;;;;;;5075518;28;20561;-75
2021/08/31 09:56:01;;;;;;;33.28;19.40;;;15.90;99.90;;;;;;5075448;28;20165;-75
2021/08/31 09:58:28;;;;;;;35.63;19.42;;;15.90;99.90;;;;;;5075402;28;20168;-75
2021/08/31 10:00:54;;;;;;;26.95;17.80;;;16.10;99.90;;;;;;5074065;28;20250;-75
2021/08/31 10:03:21;;;;;;;28.83;18.48;;;16.20;99.90;;;;;;5075229;28;20165;-75
2021/08/31 10:05:48;;;;;;;26.30;18.35;;;16.40;99.90;;;;;;5075256;28;20175;-76
2021/08/31 10:08:15;;;;;;;26.10;19.05;;;16.50;99.90;;;;;;5075025;28;20215;-75
2021/08/31 10:10:43;;;;;;;31.05;20.40;;;16.60;99.90;;;;;;5075200;28;20517;-75
2021/08/31 10:13:12;;;;;;;25.08;16.27;;;16.70;99.90;;;;;;5075051;28;20160;-75
2021/08/31 10:15:41;;;;;;;22.77;15.07;;;16.80;99.90;;;;;;5074971;28;20172;-75
2021/08/31 10:18:09;;;;;;;17.77;12.45;;;16.90;99.90;;;;;;5075296;28;20188;-75
2021/08/31 10:20:46;;;;;;;22.02;12.18;;;16.80;99.90;;;;;;5075023;28;20164;-75
2021/08/31 10:23:16;;;;;;;15.82;12.82;;;16.60;99.90;;;;;;5073849;28;20189;-75
2021/08/31 10:25:42;;;;;;;16.15;11.52;;;16.60;99.90;;;;;;5074960;28;20196;-75
2021/08/31 10:28:28;;;;;;;17.55;13.10;;;16.60;99.90;;;;;;5074776;28;20160;-75
2021/08/31 10:30:56;;;;;;;20.20;13.07;;;16.70;99.90;;;;;;5074675;28;20172;-75
2021/08/31 10:33:30;;;;;;;17.00;12.70;;;16.70;99.90;;;;;;5073835;28;20171;-76
2021/08/31 10:35:57;;;;;;;19.90;12.07;;;16.70;99.90;;;;;;5074798;28;20175;-75
2021/08/31 10:38:44;;;;;;;16.83;12.60;;;16.60;99.90;;;;;;5073495;28;20272;-75
2021/08/31 10:41:29;;;;;;;15.15;11.32;;;16.60;99.90;;;;;;5074602;28;20217;-76
2021/08/31 10:43:56;;;;;;;14.45;10.98;;;16.50;99.90;;;;;;5074531;28;20169;-75
2021/08/31 10:46:21;;;;;;;15.27;11.35;;;16.60;99.90;;;;;;5074565;28;20209;-75
2021/08/31 10:49:01;;;;;;;15.38;10.93;;;16.70;99.90;;;;;;5074416;28;20274;-75
2021/08/31 10:51:27;;;;;;;10.95;9.38;;;16.70;99.90;;;;;;5074381;28;20656;-75
2021/08/31 10:53:52;;;;;;;11.38;9.50;;;16.80;99.90;;;;;;5074329;28;20256;-75
2021/08/31 10:56:21;;;;;;;11.40;9.77;;;16.80;99.90;;;;;;5074679;28;20164;-75
2021/08/31 10:58:53;;;;;;;15.00;9.25;;;16.80;99.90;;;;;;5074238;28;20194;-75
2021/08/31 11:01:22;;;;;;;15.55;10.45;;;16.80;99.90;;;;;;5074211;28;20176;-75
2021/08/31 11:03:49;;;;;;;10.73;8.52;;;16.80;99.90;;;;;;5074084;28;20160;-75
2021/08/31 11:06:30;;;;;;;14.15;10.00;;;17.00;99.90;;;;;;5074181;28;20168;-75
2021/08/31 11:09:17;;;;;;;10.02;8.82;;;17.10;99.90;;;;;;5073849;28;20243;-75
2021/08/31 11:11:50;;;;;;;9.35;8.32;;;17.30;99.90;;;;;;5073998;28;20172;-75
2021/08/31 11:14:16;;;;;;;8.85;7.95;;;17.40;99.90;;;;;;5072633;28;20618;-75
2021/08/31 11:16:45;;;;;;;9.10;7.60;;;17.30;99.90;;;;;;5073898;28;20208;-75
2021/08/31 11:19:23;;;;;;;9.20;8.20;;;17.30;99.90;;;;;;5072551;28;20626;-75
2021/08/31 11:21:51;;;;;;;10.38;8.80;;;17.30;99.90;;;;;;5073726;28;20176;-75
2021/08/31 11:24:16;;;;;;;9.52;7.38;;;17.40;99.90;;;;;;5073730;28;20172;-75
2021/08/31 11:26:42;;;;;;;8.80;7.20;;;17.50;99.90;;;;;;5073744;28;20219;-75
2021/08/31 11:29:10;;;;;;;9.77;7.30;;;17.60;99.90;;;;;;5072317;28;20227;-75
2021/08/31 11:31:36;;;;;;;11.48;7.78;;;17.70;99.90;;;;;;5073583;28;20704;-75
2021/08/31 11:34:02;;;;;;;7.93;7.22;;;17.60;99.90;;;;;;5073584;28;20184;-75
2021/08/31 11:36:30;;;;;;;9.98;7.68;;;17.70;99.90;;;;;;5073628;28;20172;-75
2021/08/31 11:38:58;;;;;;;8.80;7.90;;;17.70;99.90;;;;;;5073533;28;20663;-75
2021/08/31 11:41:34;;;;;;;9.00;7.88;;;17.80;99.90;;;;;;5073598;28;20175;-75
2021/08/31 11:44:03;;;;;;;8.70;7.80;;;17.80;99.90;;;;;;5073297;28;20648;-75
2021/08/31 11:46:53;;;;;;;8.90;7.88;;;17.90;99.90;;;;;;5073519;28;20167;-75
2021/08/31 11:49:18;;;;;;;9.50;7.55;;;18.10;99.90;;;;;;5073145;28;20211;-75
2021/08/31 11:52:01;;;;;;;11.30;7.80;;;18.10;99.90;;;;;;5073382;28;20293;-75
2021/08/31 11:54:30;;;;;;;8.80;7.97;;;17.90;99.90;;;;;;5073435;28;20174;-75
2021/08/31 11:56:58;;;;;;;8.40;7.57;;;17.90;99.90;;;;;;5073432;28;20171;-76
2021/08/31 11:59:43;;;;;;;8.00;6.82;;;17.80;99.90;;;;;;5073300;28;20221;-75
2021/08/31 12:02:13;;;;;;;8.43;7.32;;;17.80;99.90;;;;;;5073178;28;20179;-75
2021/08/31 12:04:39;;;;;;;8.05;7.25;;;18.00;99.90;;;;;;5073244;28;20172;-75
2021/08/31 12:07:07;;;;;;;8.73;7.68;;;18.20;99.90;;;;;;5073064;28;20184;-75
2021/08/31 12:09:33;;;;;;;8.73;7.97;;;18.40;99.90;;;;;;5071747;28;20220;-75
2021/08/31 12:11:59;;;;;;;8.27;7.40;;;18.40;99.90;;;;;;5073222;28;20176;-75
2021/08/31 12:14:25;;;;;;;7.53;6.57;;;18.30;99.90;;;;;;5073161;28;20179;-75
2021/08/31 12:16:51;;;;;;;9.68;7.38;;;18.10;99.90;;;;;;5073200;28;20251;-75
2021/08/31 12:19:23;;;;;;;8.68;7.63;;;18.10;99.90;;;;;;5073168;28;20168;-75
2021/08/31 12:22:10;;;;;;;8.73;7.80;;;18.10;99.90;;;;;;5072086;28;20540;-75
2021/08/31 12:24:37;;;;;;;8.80;7.07;;;18.20;99.90;;;;;;5071919;28;20171;-75
2021/08/31 12:27:12;;;;;;;12.02;7.65;;;18.30;99.90;;;;;;5073059;28;20564;-75
2021/08/31 12:29:48;;;;;;;9.02;6.65;;;18.20;99.90;;;;;;5073042;28;20195;-75
2021/08/31 12:32:14;;;;;;;6.60;6.00;;;18.10;99.90;;;;;;5072968;28;20183;-75
2021/08/31 12:34:40;;;;;;;6.72;6.18;;;18.10;99.90;;;;;;5073034;28;20523;-75
2021/08/31 12:37:29;;;;;;;13.98;7.18;;;18.10;99.90;;;;;;5073162;28;20531;-75
2021/08/31 12:40:16;;;;;;;6.65;6.10;;;18.30;99.90;;;;;;5072990;28;20164;-75
2021/08/31 12:42:43;;;;;;;8.50;6.10;;;18.40;99.90;;;;;;5072976;28;20215;-75
2021/08/31 12:45:09;;;;;;;7.43;5.95;;;18.50;99.90;;;;;;5072908;28;20172;-75
2021/08/31 12:47:35;;;;;;;7.78;6.55;;;18.50;99.90;;;;;;5072864;28;20168;-75
2021/08/31 12:50:11;;;;;;;6.97;6.22;;;18.50;99.90;;;;;;5072933;28;20245;-75
2021/08/31 12:52:38;;;;;;;7.18;6.47;;;18.60;99.90;;;;;;5072842;28;20164;-75
2021/08/31 12:55:15;;;;;;;7.90;6.63;;;18.90;99.90;;;;;;5073336;28;20178;-76
2021/08/31 12:57:40;;;;;;;6.72;6.22;;;19.00;99.90;;;;;;5076531;28;20202;-75
2021/08/31 13:00:21;;;;;;;6.68;6.13;;;18.90;99.90;;;;;;5076445;28;20574;-75
2021/08/31 13:02:52;;;;;;;6.00;5.50;;;18.90;99.90;;;;;;5076402;28;20250;-75
2021/08/31 13:05:18;;;;;;;6.97;5.95;;;18.70;99.90;;;;;;5076393;28;20164;-75
2021/08/31 13:07:44;;;;;;;8.27;6.38;;;18.60;99.90;;;;;;5076329;28;20164;-75
2021/08/31 13:10:10;;;;;;;7.18;6.38;;;18.80;99.90;;;;;;5076006;28;20226;-75
2021/08/31 13:12:36;;;;;;;6.32;5.72;;;19.10;99.90;;;;;;5076210;28;20172;-75
2021/08/31 13:15:02;;;;;;;5.90;5.30;;;19.60;99.90;;;;;;5076119;28;20214;-75
2021/08/31 13:17:28;;;;;;;6.13;5.63;;;20.00;99.90;;;;;;5076099;28;20160;-75
2021/08/31 13:19:54;;;;;;;9.02;6.35;;;20.30;99.90;;;;;;5076116;28;20171;-75
2021/08/31 13:22:20;;;;;;;8.13;5.85;;;20.20;99.90;;;;;;5076180;28;20172;-75
2021/08/31 13:24:47;;;;;;;9.45;5.53;;;19.90;99.90;;;;;;5076119;28;20194;-75
2021/08/31 13:27:13;;;;;;;6.25;5.50;;;19.50;99.90;;;;;;5075977;28;20182;-75
2021/08/31 13:29:40;;;;;;;8.45;5.97;;;19.30;99.90;;;;;;5075845;28;20229;-75
2021/08/31 13:32:06;;;;;;;5.90;5.40;;;19.20;99.90;;;;;;5075881;28;20283;-75
2021/08/31 13:34:32;;;;;;;8.52;5.88;;;19.40;99.90;;;;;;5075899;28;20563;-75
2021/08/31 13:36:58;;;;;;;6.10;5.53;;;19.60;99.90;;;;;;5074583;28;20216;-76
2021/08/31 13:39:24;;;;;;;7.03;5.55;;;20.10;99.90;;;;;;5075812;28;20175;-75
2021/08/31 13:41:50;;;;;;;6.88;6.28;;;20.50;99.90;;;;;;5075713;28;20213;-76
2021/08/31 13:44:16;;;;;;;6.32;5.38;;;20.70;99.90;;;;;;5075721;28;20168;-75
2021/08/31 13:46:41;;;;;;;7.20;5.70;;;20.70;99.90;;;;;;5075537;28;20207;-75
2021/08/31 13:49:08;;;;;;;8.05;6.20;;;20.40;99.90;;;;;;5075523;28;20167;-75
2021/08/31 13:51:33;;;;;;;6.22;5.72;;;20.10;99.90;;;;;;5075419;28;20175;-75
2021/08/31 13:54:00;;;;;;;6.38;5.57;;;19.70;99.90;;;;;;5075464;28;20172;-75
2021/08/31 13:56:26;;;;;;;6.35;5.70;;;19.50;99.90;;;;;;5074195;28;20186;-75
2021/08/31 13:58:52;;;;;;;6.35;5.80;;;19.50;99.90;;;;;;5075273;28;20187;-75
2021/08/31 14:01:17;;;;;;;5.50;5.10;;;19.60;99.90;;;;;;5075329;28;20171;-76
2021/08/31 14:03:44;;;;;;;6.40;5.90;;;19.80;99.90;;;;;;5075277;28;20160;-75
2021/08/31 14:06:12;;;;;;;5.68;5.28;;;20.10;99.90;;;;;;5075117;28;20190;-75
2021/08/31 14:08:37;;;;;;;5.65;4.63;;;20.40;99.90;;;;;;5075200;28;20223;-75
2021/08/31 14:11:03;;;;;;;7.22;5.43;;;20.70;99.90;;;;;;5075169;28;20651;-75
2021/08/31 14:13:28;;;;;;;7.18;4.88;;;20.90;99.90;;;;;;5075147;28;20172;-75
2021/08/31 14:15:54;;;;;;;8.75;6.38;;;21.10;99.90;;;;;;5075426;28;20174;-75
2021/08/31 14:18:20;;;;;;;6.07;5.45;;;21.20;99.90;;;;;;5075215;28;20187;-75
2021/08/31 14:20:45;;;;;;;6.50;4.70;;;21.00;99.90;;;;;;5075017;28;20243;-75
2021/08/31 14:23:11;;;;;;;5.47;5.07;;;20.90;99.90;;;;;;5075032;28;20712;-75
2021/08/31 14:25:37;;;;;;;5.60;5.20;;;20.70;99.90;;;;;;5074887;28;20167;-76
2021/08/31 14:28:03;;;;;;;7.18;4.85;;;20.50;99.90;;;;;;5073894;28;20245;-75
2021/08/31 14:30:28;;;;;;;7.57;5.03;;;20.20;99.90;;;;;;5074826;28;20267;-76
2021/08/31 14:32:54;;;;;;;8.18;5.20;;;20.00;99.90;;;;;;5073570;28;20187;-76
2021/08/31 14:35:20;;;;;;;7.78;5.00;;;19.80;99.90;;;;;;5074776;28;20164;-75
2021/08/31 14:37:45;;;;;;;4.78;4.32;;;19.80;99.90;;;;;;5074746;28;20168;-76
2021/08/31 14:40:13;;;;;;;4.72;4.32;;;20.00;99.90;;;;;;5073092;28;20206;-76
2021/08/31 14:42:42;;;;;;;5.88;4.03;;;20.20;99.90;;;;;;5074480;28;20156;-75
2021/08/31 14:45:09;;;;;;;4.78;4.47;;;20.50;99.90;;;;;;5073172;28;20258;-75
2021/08/31 14:47:36;;;;;;;5.20;4.80;;;20.90;99.90;;;;;;5074401;28;20168;-75
2021/08/31 14:50:04;;;;;;;4.53;4.22;;;21.10;99.90;;;;;;5073034;28;20520;-75
2021/08/31 14:52:30;;;;;;;4.43;4.13;;;21.30;99.90;;;;;;5074424;28;20256;-75
2021/08/31 14:54:55;;;;;;;4.25;3.85;;;21.40;99.90;;;;;;5074279;28;20641;-75
2021/08/31 14:57:21;;;;;;;4.90;4.05;;;21.40;99.90;;;;;;5074213;28;20179;-75
2021/08/31 14:59:46;;;;;;;4.95;4.55;;;21.60;99.90;;;;;;5074078;28;20242;-75
2021/08/31 15:02:12;;;;;;;6.00;4.18;;;21.60;99.90;;;;;;5074219;28;20222;-80
2021/08/31 15:04:38;;;;;;;4.90;4.50;;;21.50;99.90;;;;;;5074012;28;20167;-75
2021/08/31 15:07:04;;;;;;;4.25;3.95;;;21.50;99.90;;;;;;5073957;28;20233;-75
2021/08/31 15:09:29;;;;;;;4.63;4.30;;;20.80;99.90;;;;;;5073842;28;20273;-74
2021/08/31 15:11:55;;;;;;;4.32;3.28;;;21.50;99.90;;;;;;5073528;28;20191;-74
2021/08/31 15:14:20;;;;;;;4.00;3.60;;;21.40;99.90;;;;;;5073887;28;20210;-75
2021/08/31 15:16:48;;;;;;;4.53;4.07;;;21.60;99.90;;;;;;5073683;28;20237;-75
2021/08/31 15:19:14;;;;;;;4.72;3.63;;;21.70;99.90;;;;;;5073133;28;20711;-74
2021/08/31 15:21:39;;;;;;;3.83;3.53;;;21.90;99.90;;;;;;5073792;28;20176;-74
2021/08/31 15:24:06;;;;;;;4.40;3.58;;;21.80;99.90;;;;;;5073693;28;20525;-74
2021/08/31 15:26:39;;;;;;;3.97;3.70;;;21.90;99.90;;;;;;5073621;28;20501;-74
2021/08/31 15:29:09;;;;;;;6.85;4.32;;;21.90;99.90;;;;;;5073732;28;20164;-74
2021/08/31 15:31:36;;;;;;;5.53;3.47;;;21.90;99.90;;;;;;5074303;28;20245;-74
2021/08/31 15:34:03;;;;;;;4.13;3.83;;;22.00;99.90;;;;;;5073531;28;20168;-74
2021/08/31 15:36:29;;;;;;;6.47;3.83;;;22.30;99.90;;;;;;5073533;28;20190;-75
2021/08/31 15:38:57;;;;;;;5.25;3.42;;;22.50;99.90;;;;;;5073446;28;20657;-74
2021/08/31 15:41:22;;;;;;;4.93;3.15;;;22.60;99.90;;;;;;5073522;28;20175;-74
2021/08/31 15:43:48;;;;;;;4.68;4.15;;;22.80;99.90;;;;;;5072229;28;20172;-75
2021/08/31 15:46:15;;;;;;;4.20;3.80;;;22.90;99.90;;;;;;5073371;28;20171;-75
2021/08/31 15:48:41;;;;;;;4.18;3.83;;;23.10;99.90;;;;;;5073473;28;20251;-75
2021/08/31 15:51:08;;;;;;;4.20;3.90;;;23.20;99.90;;;;;;5071984;28;20606;-75
2021/08/31 15:53:34;;;;;;;4.07;3.78;;;23.30;99.90;;;;;;5073443;28;20242;-75
2021/08/31 15:55:59;;;;;;;4.07;3.78;;;23.20;99.90;;;;;;5073303;28;20205;-75
2021/08/31 15:58:25;;;;;;;4.65;3.95;;;23.20;99.90;;;;;;5072030;28;20195;-75
2021/08/31 16:00:51;;;;;;;3.75;3.30;;;23.20;99.90;;;;;;5073362;28;20167;-75
2021/08/31 16:03:16;;;;;;;3.80;3.60;;;23.20;99.90;;;;;;5073233;28;20175;-75
2021/08/31 16:05:42;;;;;;;4.30;4.00;;;23.30;99.90;;;;;;5073070;28;20167;-75
2021/08/31 16:08:07;;;;;;;5.15;4.07;;;23.30;99.90;;;;;;5072882;28;20243;-75
2021/08/31 16:10:33;;;;;;;4.20;3.80;;;23.20;99.90;;;;;;5073171;28;20195;-75
2021/08/31 16:12:59;;;;;;;6.57;3.80;;;23.00;99.90;;;;;;5073013;28;20191;-75
2021/08/31 16:15:25;;;;;;;4.18;3.88;;;22.50;99.90;;;;;;5073043;28;20171;-75
2021/08/31 16:17:51;;;;;;;5.38;3.75;;;22.30;99.90;;;;;;5073061;28;20191;-75
2021/08/31 16:20:17;;;;;;;4.50;4.10;;;21.90;99.90;;;;;;5072939;28;20605;-75
2021/08/31 16:22:42;;;;;;;3.83;3.63;;;21.70;99.90;;;;;;5073120;28;20164;-75
2021/08/31 16:25:11;;;;;;;4.95;4.47;;;21.50;99.90;;;;;;5071794;28;20168;-75
2021/08/31 16:27:37;;;;;;;5.15;4.75;;;21.20;99.90;;;;;;5072976;28;20571;-75
2021/08/31 16:30:05;;;;;;;4.10;3.63;;;20.90;99.90;;;;;;5072321;28;20176;-75
2021/08/31 16:32:38;;;;;;;7.22;4.00;;;20.90;99.90;;;;;;5075769;28;20564;-74
2021/08/31 16:35:06;;;;;;;3.97;3.58;;;21.00;99.90;;;;;;5077015;28;20214;-75
2021/08/31 16:37:33;;;;;;;4.30;4.00;;;21.00;99.90;;;;;;5075563;28;20172;-75
2021/08/31 16:39:59;;;;;;;3.92;3.55;;;21.10;99.90;;;;;;5076854;28;20198;-75
2021/08/31 16:42:26;;;;;;;4.38;3.97;;;21.10;99.90;;;;;;5075669;28;20652;-75
2021/08/31 16:44:51;;;;;;;4.38;4.07;;;21.20;99.90;;;;;;5076833;28;20262;-75
2021/08/31 16:47:17;;;;;;;3.97;3.72;;;21.30;99.90;;;;;;5076674;28;20203;-75
2021/08/31 16:49:42;;;;;;;4.50;3.65;;;21.40;99.90;;;;;;5076665;28;20172;-74
2021/08/31 16:52:08;;;;;;;5.80;4.47;;;21.50;99.90;;;;;;5076698;28;20245;-75
2021/08/31 16:54:34;;;;;;;4.68;4.20;;;21.50;99.90;;;;;;5076628;28;20637;-75
2021/08/31 16:56:59;;;;;;;4.13;3.83;;;21.50;99.90;;;;;;5076601;28;20171;-75
2021/08/31 16:59:25;;;;;;;4.57;4.18;;;21.40;99.90;;;;;;5076431;28;20191;-74
2021/08/31 17:01:54;;;;;;;6.90;3.63;;;21.40;99.90;;;;;;5076411;28;20554;-74
2021/08/31 17:04:21;;;;;;;3.60;3.40;;;21.30;99.90;;;;;;5076322;28;20172;-75
2021/08/31 17:06:47;;;;;;;3.28;3.08;;;21.30;99.90;;;;;;5076346;28;20233;-75
2021/08/31 17:09:13;;;;;;;7.07;3.80;;;21.30;99.90;;;;;;5074882;28;20223;-75
2021/08/31 17:11:39;;;;;;;4.22;3.72;;;21.20;99.90;;;;;;5075054;28;20176;-75
2021/08/31 17:14:05;;;;;;;4.15;3.75;;;21.10;99.90;;;;;;5076207;28;20679;-74
2021/08/31 17:16:31;;;;;;;3.70;3.45;;;21.00;99.90;;;;;;5076200;28;20176;-74
2021/08/31 17:18:56;;;;;;;8.57;3.75;;;20.80;99.90;;;;;;5076108;28;20717;-74
2021/08/31 17:21:22;;;;;;;4.18;3.88;;;20.50;99.90;;;;;;5076146;28;20172;-74
2021/08/31 17:23:48;;;;;;;4.95;3.83;;;20.40;99.90;;;;;;5076026;28;20184;-74
2021/08/31 17:26:14;;;;;;;4.30;3.90;;;20.20;99.90;;;;;;5075897;28;20206;-74
2021/08/31 17:28:43;;;;;;;4.72;4.35;;;20.00;99.90;;;;;;5075841;28;20164;-74
2021/08/31 17:31:09;;;;;;;4.45;3.53;;;19.90;99.90;;;;;;5074468;28;20179;-74
2021/08/31 17:33:35;;;;;;;7.80;4.28;;;19.80;99.90;;;;;;5074493;28;20614;-74
2021/08/31 17:36:00;;;;;;;5.03;4.22;;;19.60;99.90;;;;;;5075782;28;20168;-74
2021/08/31 17:38:28;;;;;;;4.47;3.90;;;19.50;99.90;;;;;;5075644;28;20249;-74
2021/08/31 17:40:54;;;;;;;4.68;4.22;;;19.40;99.90;;;;;;5075177;28;20247;-74
2021/08/31 17:43:20;;;;;;;4.93;3.60;;;19.30;99.90;;;;;;5075607;28;20192;-74
2021/08/31 17:45:45;;;;;;;4.35;4.05;;;19.10;99.90;;;;;;5075526;28;20218;-74
2021/08/31 17:48:13;;;;;;;4.40;4.10;;;19.00;99.90;;;;;;5075542;28;20168;-74
2021/08/31 17:50:40;;;;;;;4.70;4.30;;;18.90;99.90;;;;;;5075443;28;20643;-74
2021/08/31 17:53:07;;;;;;;4.38;4.07;;;18.80;99.90;;;;;;5075457;28;20168;-74
2021/08/31 17:55:34;;;;;;;4.38;4.03;;;18.70;99.90;;;;;;5075413;28;20164;-74
